Time;durP1;ratioP1;P1;durP2;ratioP2;P2;SDS_P1;SDS_P2;PMS_P1;PMS_P2;Temp;Humidity;BMP_temperature;BMP_pressure;BME280_temperature;BME280_humidity;BME280_pressure;Samples;Min_cycle;Max_cycle;Signal;HPM_P1;HPM_P2
2023/12/15 00:00:54;;;;;;;4.22;3.92;;;;;;;;;;2069744;28;20030;-72
2023/12/15 00:02:13;;;;;;;4.63;4.22;;;;;;;;;;2075963;28;20041;-72
2023/12/15 00:03:31;;;;;;;5.00;4.50;;;;;;;;;;2080835;28;20391;-72
2023/12/15 00:04:50;;;;;;;4.80;4.40;;;;;;;;;;2079701;28;20124;-72
2023/12/15 00:06:09;;;;;;;5.15;4.70;;;;;;;;;;2080411;28;20038;-72
2023/12/15 00:07:28;;;;;;;4.70;4.30;;;;;;;;;;2080268;28;20479;-72
2023/12/15 00:08:47;;;;;;;4.80;4.40;;;;;;;;;;2079452;28;20025;-72
2023/12/15 00:10:06;;;;;;;4.00;3.70;;;;;;;;;;2080483;28;20025;-72
2023/12/15 00:11:25;;;;;;;4.20;3.83;;;;;;;;;;2080148;28;20696;-71
2023/12/15 00:12:44;;;;;;;4.10;3.80;;;;;;;;;;2079757;28;20037;-74
2023/12/15 00:14:03;;;;;;;3.92;3.63;;;;;;;;;;2080254;28;20033;-72
2023/12/15 00:15:22;;;;;;;4.18;3.88;;;;;;;;;;2074718;28;20037;-76
2023/12/15 00:16:41;;;;;;;4.07;3.67;;;;;;;;;;2075910;28;20045;-72
2023/12/15 00:18:00;;;;;;;4.43;4.07;;;;;;;;;;2075093;28;20112;-74
2023/12/15 00:19:20;;;;;;;4.13;3.72;;;;;;;;;;2077346;28;20022;-74
2023/12/15 00:20:39;;;;;;;4.35;3.95;;;;;;;;;;2072785;28;20581;-72
2023/12/15 00:21:58;;;;;;;3.83;3.53;;;;;;;;;;2076355;28;20429;-73
2023/12/15 00:23:17;;;;;;;3.90;3.60;;;;;;;;;;2073464;28;20030;-73
2023/12/15 00:24:39;;;;;;;3.60;3.30;;;;;;;;;;2077097;28;20025;-72
2023/12/15 00:25:58;;;;;;;3.67;3.38;;;;;;;;;;2079112;28;20030;-72
2023/12/15 00:27:17;;;;;;;3.75;3.55;;;;;;;;;;2078225;28;20049;-73
2023/12/15 00:28:36;;;;;;;3.92;3.63;;;;;;;;;;2071032;28;20429;-73
2023/12/15 00:29:56;;;;;;;3.70;3.40;;;;;;;;;;2076617;28;20029;-72
2023/12/15 00:31:15;;;;;;;3.78;3.45;;;;;;;;;;2073845;28;20455;-72
2023/12/15 00:32:33;;;;;;;3.70;3.40;;;;;;;;;;2074553;28;20035;-72
2023/12/15 00:33:52;;;;;;;3.88;3.58;;;;;;;;;;2072293;28;20487;-72
2023/12/15 00:35:11;;;;;;;4.25;3.85;;;;;;;;;;2076766;28;20479;-72
2023/12/15 00:36:30;;;;;;;3.97;3.67;;;;;;;;;;2073757;28;20168;-72
2023/12/15 00:37:49;;;;;;;3.72;3.42;;;;;;;;;;2076375;28;20120;-73
2023/12/15 00:39:08;;;;;;;4.00;3.70;;;;;;;;;;2079226;28;20115;-73
2023/12/15 00:40:27;;;;;;;3.78;3.47;;;;;;;;;;2080587;28;20038;-72
2023/12/15 00:41:46;;;;;;;3.80;3.42;;;;;;;;;;2078823;28;20483;-72
2023/12/15 00:43:05;;;;;;;3.40;3.10;;;;;;;;;;2073187;28;20026;-73
2023/12/15 00:44:24;;;;;;;3.35;3.15;;;;;;;;;;2077952;28;20038;-73
2023/12/15 00:45:43;;;;;;;3.60;3.30;;;;;;;;;;2074781;28;20029;-73
2023/12/15 00:47:02;;;;;;;3.35;3.10;;;;;;;;;;2073693;28;20025;-73
2023/12/15 00:48:20;;;;;;;3.30;3.10;;;;;;;;;;2071415;28;20117;-71
2023/12/15 00:49:39;;;;;;;3.22;3.03;;;;;;;;;;2070525;28;20026;-75
2023/12/15 00:50:58;;;;;;;3.95;3.55;;;;;;;;;;2077517;28;20021;-73
2023/12/15 00:52:17;;;;;;;3.13;2.83;;;;;;;;;;2079051;28;20022;-74
2023/12/15 00:53:36;;;;;;;3.67;3.38;;;;;;;;;;2079791;28;20510;-75
2023/12/15 00:54:55;;;;;;;3.65;3.35;;;;;;;;;;2071274;28;20022;-74
2023/12/15 00:56:14;;;;;;;3.03;2.75;;;;;;;;;;2068303;28;20033;-74
2023/12/15 00:57:33;;;;;;;3.50;3.20;;;;;;;;;;2075103;28;20030;-72
2023/12/15 00:58:53;;;;;;;4.47;3.40;;;;;;;;;;2080530;28;20021;-73
2023/12/15 01:00:12;;;;;;;3.28;2.97;;;;;;;;;;2079420;28;20459;-72
2023/12/15 01:01:32;;;;;;;3.75;3.45;;;;;;;;;;2080119;28;20017;-73
2023/12/15 01:02:51;;;;;;;3.55;3.17;;;;;;;;;;2073678;28;20030;-74
2023/12/15 01:04:10;;;;;;;3.70;3.40;;;;;;;;;;2077593;28;20030;-72
2023/12/15 01:05:29;;;;;;;3.80;3.50;;;;;;;;;;2080141;28;20026;-73
2023/12/15 01:06:48;;;;;;;3.55;3.35;;;;;;;;;;2074746;28;20057;-73
2023/12/15 01:08:07;;;;;;;3.47;3.25;;;;;;;;;;2076022;28;20715;-72
2023/12/15 01:09:26;;;;;;;3.10;2.90;;;;;;;;;;2073750;28;20104;-73
2023/12/15 01:10:45;;;;;;;2.90;2.70;;;;;;;;;;2078426;28;20029;-74
2023/12/15 01:12:04;;;;;;;3.40;2.80;;;;;;;;;;2080205;28;20105;-73
2023/12/15 01:13:23;;;;;;;2.90;2.70;;;;;;;;;;2073107;28;20033;-73
2023/12/15 01:14:43;;;;;;;3.60;3.38;;;;;;;;;;2078136;28;20025;-74
2023/12/15 01:16:05;;;;;;;3.42;3.13;;;;;;;;;;2073744;28;20394;-73
2023/12/15 01:17:24;;;;;;;3.63;3.35;;;;;;;;;;2072109;28;20089;-73
2023/12/15 01:18:44;;;;;;;3.30;3.10;;;;;;;;;;2077529;28;20037;-73
2023/12/15 01:20:03;;;;;;;3.65;2.63;;;;;;;;;;2080297;28;20399;-76
2023/12/15 01:21:22;;;;;;;3.40;3.10;;;;;;;;;;2080994;28;20518;-73
2023/12/15 01:22:40;;;;;;;2.95;2.75;;;;;;;;;;2080068;28;20026;-72
2023/12/15 01:23:59;;;;;;;3.60;3.30;;;;;;;;;;2078057;28;20033;-75
2023/12/15 01:25:18;;;;;;;3.42;3.13;;;;;;;;;;2079399;28;20105;-72
2023/12/15 01:26:37;;;;;;;3.47;3.17;;;;;;;;;;2079381;28;20065;-72
2023/12/15 01:27:57;;;;;;;3.10;2.90;;;;;;;;;;2073620;28;20030;-72
2023/12/15 01:29:16;;;;;;;3.75;3.10;;;;;;;;;;2061972;28;20120;-73
2023/12/15 01:30:35;;;;;;;3.10;2.80;;;;;;;;;;2073211;28;20030;-72
2023/12/15 01:31:54;;;;;;;3.08;2.88;;;;;;;;;;2079193;28;20064;-73
2023/12/15 01:33:13;;;;;;;4.18;3.28;;;;;;;;;;2080453;28;20466;-72
2023/12/15 01:34:32;;;;;;;3.70;3.40;;;;;;;;;;2078574;28;20030;-73
2023/12/15 01:35:51;;;;;;;3.00;2.80;;;;;;;;;;2080363;28;20029;-72
2023/12/15 01:37:10;;;;;;;3.35;3.00;;;;;;;;;;2074987;28;20034;-73
2023/12/15 01:38:29;;;;;;;3.20;2.90;;;;;;;;;;2075802;28;20037;-73
2023/12/15 01:39:47;;;;;;;3.53;3.22;;;;;;;;;;2078009;28;20033;-73
2023/12/15 01:41:06;;;;;;;3.45;3.22;;;;;;;;;;2080541;28;20025;-73
2023/12/15 01:42:26;;;;;;;4.03;3.72;;;;;;;;;;2074545;28;20456;-74
2023/12/15 01:43:45;;;;;;;3.45;3.20;;;;;;;;;;2070181;28;20029;-73
2023/12/15 01:45:05;;;;;;;4.53;3.00;;;;;;;;;;2076744;28;20116;-74
2023/12/15 01:46:24;;;;;;;4.28;3.53;;;;;;;;;;2079529;28;20026;-74
2023/12/15 01:47:43;;;;;;;4.10;3.80;;;;;;;;;;2078606;28;20433;-72
2023/12/15 01:49:02;;;;;;;3.90;3.60;;;;;;;;;;2079747;28;20037;-72
2023/12/15 01:50:21;;;;;;;3.88;3.58;;;;;;;;;;2078726;28;20029;-72
2023/12/15 01:51:40;;;;;;;4.00;3.80;;;;;;;;;;2079311;28;20025;-73
2023/12/15 01:52:59;;;;;;;4.32;3.97;;;;;;;;;;2080281;28;20029;-73
2023/12/15 01:54:18;;;;;;;4.47;4.10;;;;;;;;;;2081408;28;20038;-73
2023/12/15 01:55:37;;;;;;;4.40;4.10;;;;;;;;;;2081191;28;20052;-75
2023/12/15 01:56:56;;;;;;;4.20;3.90;;;;;;;;;;2077871;28;20110;-75
2023/12/15 01:58:16;;;;;;;4.57;4.18;;;;;;;;;;2079853;28;20029;-77
2023/12/15 01:59:44;;;;;;;3.95;3.72;;;;;;;;;;2082743;28;20038;-74
2023/12/15 02:01:04;;;;;;;4.28;3.97;;;;;;;;;;2089954;28;20029;-74
2023/12/15 02:02:24;;;;;;;3.95;3.65;;;;;;;;;;2076994;28;20037;-73
2023/12/15 02:03:43;;;;;;;3.88;3.63;;;;;;;;;;2076854;28;20101;-73
2023/12/15 02:05:02;;;;;;;4.00;3.70;;;;;;;;;;2081898;28;20483;-73
2023/12/15 02:06:21;;;;;;;4.22;3.35;;;;;;;;;;2081249;28;20037;-73
2023/12/15 02:07:40;;;;;;;3.88;3.58;;;;;;;;;;2082711;28;20018;-72
2023/12/15 02:08:59;;;;;;;3.83;3.53;;;;;;;;;;2089201;28;20030;-75
2023/12/15 02:10:18;;;;;;;4.38;3.97;;;;;;;;;;2090530;28;20029;-76
2023/12/15 02:11:37;;;;;;;4.15;3.55;;;;;;;;;;2089214;28;20029;-74
2023/12/15 02:12:56;;;;;;;4.40;4.10;;;;;;;;;;2087506;28;20029;-72
2023/12/15 02:14:15;;;;;;;4.13;3.83;;;;;;;;;;2086697;28;20030;-74
2023/12/15 02:15:34;;;;;;;3.90;3.60;;;;;;;;;;2088154;28;20034;-73
2023/12/15 02:16:53;;;;;;;4.13;3.83;;;;;;;;;;2086922;28;20034;-72
2023/12/15 02:18:12;;;;;;;3.95;3.63;;;;;;;;;;2076425;28;20030;-73
2023/12/15 02:19:31;;;;;;;3.97;3.67;;;;;;;;;;2080198;28;20017;-73
2023/12/15 02:20:50;;;;;;;4.45;4.10;;;;;;;;;;2075689;28;20030;-75
2023/12/15 02:22:09;;;;;;;4.50;4.10;;;;;;;;;;2077957;28;20029;-72
2023/12/15 02:23:29;;;;;;;4.45;4.00;;;;;;;;;;2081335;28;20348;-72
2023/12/15 02:24:48;;;;;;;4.32;3.92;;;;;;;;;;2075807;28;20057;-76
2023/12/15 02:26:06;;;;;;;4.22;3.80;;;;;;;;;;2078512;28;20045;-73
2023/12/15 02:27:25;;;;;;;4.85;4.45;;;;;;;;;;2080619;28;20047;-73
2023/12/15 02:28:44;;;;;;;4.07;3.78;;;;;;;;;;2075904;28;20047;-74
2023/12/15 02:30:03;;;;;;;4.20;3.90;;;;;;;;;;2072710;28;20461;-73
2023/12/15 02:31:24;;;;;;;4.20;3.90;;;;;;;;;;2079236;28;20030;-73
2023/12/15 02:32:43;;;;;;;4.03;3.63;;;;;;;;;;2080603;28;20018;-74
2023/12/15 02:34:02;;;;;;;3.58;3.28;;;;;;;;;;2080449;28;20025;-72
2023/12/15 02:35:22;;;;;;;4.30;3.90;;;;;;;;;;2081007;28;20033;-73
2023/12/15 02:36:41;;;;;;;4.30;4.00;;;;;;;;;;2080823;28;20483;-72
2023/12/15 02:38:00;;;;;;;4.38;3.97;;;;;;;;;;2074374;28;20033;-74
2023/12/15 02:39:19;;;;;;;4.47;4.07;;;;;;;;;;2071711;28;20041;-72
2023/12/15 02:40:39;;;;;;;4.43;3.85;;;;;;;;;;2078100;28;20025;-74
2023/12/15 02:41:58;;;;;;;4.93;4.53;;;;;;;;;;2075738;28;20034;-73
2023/12/15 02:43:17;;;;;;;3.83;3.53;;;;;;;;;;2076346;28;20037;-73
2023/12/15 02:44:36;;;;;;;4.40;4.10;;;;;;;;;;2074970;28;20113;-73
2023/12/15 02:45:56;;;;;;;4.13;3.80;;;;;;;;;;2077814;28;20490;-74
2023/12/15 02:47:15;;;;;;;4.72;4.43;;;;;;;;;;2074918;28;20033;-73
2023/12/15 02:48:34;;;;;;;4.43;4.13;;;;;;;;;;2077220;28;20029;-73
2023/12/15 02:49:54;;;;;;;4.53;4.22;;;;;;;;;;2082721;28;20038;-73
2023/12/15 02:51:26;;;;;;;4.63;4.22;;;;;;;;;;2074413;28;20403;-74
2023/12/15 02:52:45;;;;;;;4.32;3.92;;;;;;;;;;2078237;28;20112;-72
2023/12/15 02:54:04;;;;;;;4.53;4.13;;;;;;;;;;2079183;28;20430;-73
2023/12/15 02:55:23;;;;;;;5.22;4.82;;;;;;;;;;2081183;28;20120;-74
2023/12/15 02:56:42;;;;;;;4.43;4.05;;;;;;;;;;2080555;28;20025;-73
2023/12/15 02:58:01;;;;;;;5.18;4.75;;;;;;;;;;2076269;28;20022;-73
2023/12/15 02:59:20;;;;;;;4.75;4.45;;;;;;;;;;2071885;28;20495;-72
2023/12/15 03:00:39;;;;;;;5.10;4.00;;;;;;;;;;2067978;28;20077;-73
2023/12/15 03:01:58;;;;;;;4.95;4.43;;;;;;;;;;2070154;28;20038;-73
2023/12/15 03:03:16;;;;;;;4.72;4.40;;;;;;;;;;2077671;28;20029;-74
2023/12/15 03:04:35;;;;;;;4.63;4.22;;;;;;;;;;2073533;28;20029;-74
2023/12/15 03:05:55;;;;;;;4.72;4.32;;;;;;;;;;2069982;28;20033;-73
2023/12/15 03:07:13;;;;;;;4.60;4.20;;;;;;;;;;2070776;28;20112;-72
2023/12/15 03:08:32;;;;;;;5.22;4.75;;;;;;;;;;2077721;28;20021;-73
2023/12/15 03:09:51;;;;;;;5.32;4.82;;;;;;;;;;2078348;28;20013;-73
2023/12/15 03:11:10;;;;;;;4.93;4.45;;;;;;;;;;2080773;28;20379;-74
2023/12/15 03:12:30;;;;;;;4.85;4.45;;;;;;;;;;2080885;28;20033;-76
2023/12/15 03:13:49;;;;;;;5.22;4.72;;;;;;;;;;2074772;28;20048;-73
2023/12/15 03:15:08;;;;;;;5.30;4.88;;;;;;;;;;2071135;28;20037;-74
2023/12/15 03:16:27;;;;;;;6.35;5.00;;;;;;;;;;2078106;28;20492;-73
2023/12/15 03:17:46;;;;;;;5.13;4.63;;;;;;;;;;2079267;28;20030;-74
2023/12/15 03:19:05;;;;;;;5.22;4.78;;;;;;;;;;2082411;28;20025;-73
2023/12/15 03:20:24;;;;;;;5.90;4.90;;;;;;;;;;2073939;28;20021;-73
2023/12/15 03:21:43;;;;;;;4.53;4.13;;;;;;;;;;2071684;28;20029;-73
2023/12/15 03:23:02;;;;;;;4.88;4.53;;;;;;;;;;2078818;28;20025;-73
2023/12/15 03:24:21;;;;;;;5.13;4.63;;;;;;;;;;2080922;28;20025;-73
2023/12/15 03:25:40;;;;;;;5.57;4.50;;;;;;;;;;2074449;28;20034;-72
2023/12/15 03:26:58;;;;;;;4.53;4.22;;;;;;;;;;2078938;28;20089;-73
2023/12/15 03:28:17;;;;;;;4.82;4.43;;;;;;;;;;2074302;28;20066;-73
2023/12/15 03:29:37;;;;;;;4.68;4.28;;;;;;;;;;2074410;28;20026;-73
2023/12/15 03:30:56;;;;;;;5.07;4.68;;;;;;;;;;2076577;28;20034;-72
2023/12/15 03:32:15;;;;;;;5.10;4.70;;;;;;;;;;2080358;28;20108;-72
2023/12/15 03:33:38;;;;;;;5.25;4.68;;;;;;;;;;2079391;28;20029;-73
2023/12/15 03:34:57;;;;;;;5.15;4.75;;;;;;;;;;2080026;28;20034;-73
2023/12/15 03:36:16;;;;;;;5.18;4.68;;;;;;;;;;2074611;28;20471;-73
2023/12/15 03:37:34;;;;;;;5.18;4.68;;;;;;;;;;2070993;28;20034;-72
2023/12/15 03:38:53;;;;;;;5.72;4.85;;;;;;;;;;2076005;28;20026;-73
2023/12/15 03:40:12;;;;;;;5.55;5.05;;;;;;;;;;2073854;28;20457;-73
2023/12/15 03:41:31;;;;;;;5.30;4.90;;;;;;;;;;2072003;28;20104;-74
2023/12/15 03:42:50;;;;;;;5.13;4.72;;;;;;;;;;2078768;28;20437;-73
2023/12/15 03:44:09;;;;;;;5.65;5.15;;;;;;;;;;2073905;28;20455;-73
2023/12/15 03:45:28;;;;;;;5.45;4.95;;;;;;;;;;2077621;28;20041;-73
2023/12/15 03:46:47;;;;;;;5.35;4.85;;;;;;;;;;2080160;28;20487;-72
2023/12/15 03:48:06;;;;;;;5.03;4.63;;;;;;;;;;2081774;28;20065;-75
2023/12/15 03:49:25;;;;;;;5.03;4.63;;;;;;;;;;2076124;28;20017;-73
2023/12/15 03:50:44;;;;;;;5.03;4.60;;;;;;;;;;2071752;28;20025;-73
2023/12/15 03:52:03;;;;;;;5.35;4.85;;;;;;;;;;2076874;28;20487;-73
2023/12/15 03:53:22;;;;;;;5.28;4.82;;;;;;;;;;2073935;28;20025;-72
2023/12/15 03:54:41;;;;;;;4.88;4.47;;;;;;;;;;2072269;28;20105;-72
2023/12/15 03:56:00;;;;;;;5.13;4.72;;;;;;;;;;2079085;28;20029;-72
2023/12/15 03:57:19;;;;;;;4.85;4.45;;;;;;;;;;2082427;28;20034;-74
2023/12/15 03:58:38;;;;;;;4.43;4.13;;;;;;;;;;2076615;28;20491;-72
2023/12/15 03:59:57;;;;;;;4.47;4.18;;;;;;;;;;2081114;28;20033;-73
2023/12/15 04:01:16;;;;;;;4.57;4.20;;;;;;;;;;2076863;28;20128;-76
2023/12/15 04:02:35;;;;;;;4.80;4.40;;;;;;;;;;2077694;28;20105;-74
2023/12/15 04:03:54;;;;;;;4.53;4.13;;;;;;;;;;2073574;28;20034;-73
2023/12/15 04:05:14;;;;;;;4.50;4.20;;;;;;;;;;2078559;28;20030;-73
2023/12/15 04:06:34;;;;;;;4.70;4.30;;;;;;;;;;2081613;28;20022;-73
2023/12/15 04:07:53;;;;;;;4.60;4.20;;;;;;;;;;2075892;28;20022;-73
2023/12/15 04:09:12;;;;;;;5.13;4.70;;;;;;;;;;2079691;28;20116;-76
2023/12/15 04:10:32;;;;;;;4.90;4.50;;;;;;;;;;2074988;28;20498;-74
2023/12/15 04:11:50;;;;;;;4.97;4.57;;;;;;;;;;2073184;28;20084;-72
2023/12/15 04:13:09;;;;;;;4.40;4.10;;;;;;;;;;2072004;28;20026;-72
2023/12/15 04:14:28;;;;;;;5.05;4.57;;;;;;;;;;2078719;28;20022;-72
2023/12/15 04:15:47;;;;;;;4.32;3.92;;;;;;;;;;2082262;28;20038;-73
2023/12/15 04:17:06;;;;;;;4.63;4.22;;;;;;;;;;2081850;28;20033;-73
2023/12/15 04:18:25;;;;;;;5.00;4.57;;;;;;;;;;2081859;28;20116;-73
2023/12/15 04:19:44;;;;;;;4.63;4.22;;;;;;;;;;2076553;28;20033;-74
2023/12/15 04:21:04;;;;;;;4.30;4.00;;;;;;;;;;2071105;28;20065;-73
2023/12/15 04:22:22;;;;;;;4.10;3.80;;;;;;;;;;2071976;28;20041;-73
2023/12/15 04:23:41;;;;;;;4.43;4.13;;;;;;;;;;2078543;28;20033;-73
2023/12/15 04:25:00;;;;;;;4.20;3.90;;;;;;;;;;2072546;28;20026;-72
2023/12/15 04:26:19;;;;;;;4.50;4.10;;;;;;;;;;2068245;28;20042;-72
2023/12/15 04:27:37;;;;;;;4.43;4.03;;;;;;;;;;2074903;28;20030;-73
2023/12/15 04:28:56;;;;;;;4.25;3.95;;;;;;;;;;2078776;28;20041;-74
2023/12/15 04:30:15;;;;;;;4.70;3.65;;;;;;;;;;2082363;28;20026;-73
2023/12/15 04:31:34;;;;;;;3.78;3.47;;;;;;;;;;2073395;28;20026;-73
2023/12/15 04:32:54;;;;;;;4.07;3.75;;;;;;;;;;2078835;28;20033;-72
2023/12/15 04:34:12;;;;;;;4.28;3.95;;;;;;;;;;2082698;28;20037;-72
2023/12/15 04:35:32;;;;;;;4.60;4.20;;;;;;;;;;2081882;28;20034;-74
2023/12/15 04:36:50;;;;;;;4.05;3.75;;;;;;;;;;2075172;28;20034;-73
2023/12/15 04:38:09;;;;;;;4.13;3.83;;;;;;;;;;2079540;28;20487;-73
2023/12/15 04:39:28;;;;;;;4.55;3.92;;;;;;;;;;2074514;28;20414;-73
2023/12/15 04:40:47;;;;;;;11.48;8.48;;;;;;;;;;2078840;28;20371;-74
2023/12/15 04:42:06;;;;;;;5.85;4.03;;;;;;;;;;2081040;28;20053;-74
2023/12/15 04:43:25;;;;;;;3.83;3.53;;;;;;;;;;2081653;28;20076;-74
2023/12/15 04:44:44;;;;;;;4.05;3.75;;;;;;;;;;2073897;28;20034;-72
2023/12/15 04:46:04;;;;;;;4.18;3.78;;;;;;;;;;2079098;28;20493;-73
2023/12/15 04:47:22;;;;;;;4.00;3.70;;;;;;;;;;2075703;28;20041;-73
2023/12/15 04:48:41;;;;;;;4.13;3.78;;;;;;;;;;2078251;28;20026;-73
2023/12/15 04:50:00;;;;;;;3.92;3.53;;;;;;;;;;2079552;28;20112;-73
2023/12/15 04:51:19;;;;;;;4.25;3.70;;;;;;;;;;2075975;28;20065;-74
2023/12/15 04:52:38;;;;;;;4.20;3.90;;;;;;;;;;2078384;28;20029;-73
2023/12/15 04:53:57;;;;;;;4.38;4.03;;;;;;;;;;2075247;28;21198;-73
2023/12/15 04:55:16;;;;;;;4.38;3.97;;;;;;;;;;2078199;28;20033;-72
2023/12/15 04:56:35;;;;;;;4.47;4.07;;;;;;;;;;2080256;28;20108;-72
2023/12/15 04:57:54;;;;;;;4.50;4.13;;;;;;;;;;2073665;28;20026;-74
2023/12/15 04:59:13;;;;;;;4.30;3.90;;;;;;;;;;2076925;28;20062;-76
2023/12/15 05:00:32;;;;;;;4.80;4.32;;;;;;;;;;2078168;28;20034;-74
2023/12/15 05:01:51;;;;;;;4.57;4.18;;;;;;;;;;2080661;28;20025;-74
2023/12/15 05:03:10;;;;;;;4.57;4.18;;;;;;;;;;2075648;28;20042;-73
2023/12/15 05:04:29;;;;;;;4.45;4.00;;;;;;;;;;2076632;28;20232;-73
2023/12/15 05:05:48;;;;;;;4.40;3.75;;;;;;;;;;2080507;28;20029;-73
2023/12/15 05:07:07;;;;;;;3.92;3.55;;;;;;;;;;2081888;28;20029;-73
2023/12/15 05:08:26;;;;;;;3.90;3.50;;;;;;;;;;2073589;28;20022;-72
2023/12/15 05:09:46;;;;;;;4.00;3.63;;;;;;;;;;2076263;28;20074;-72
2023/12/15 05:11:05;;;;;;;4.03;3.67;;;;;;;;;;2079993;28;20097;-73
2023/12/15 05:12:24;;;;;;;3.88;3.58;;;;;;;;;;2080233;28;20545;-73
2023/12/15 05:13:43;;;;;;;4.38;3.95;;;;;;;;;;2079932;28;20674;-73
2023/12/15 05:15:05;;;;;;;4.75;3.75;;;;;;;;;;2079785;28;20467;-73
2023/12/15 05:16:25;;;;;;;4.63;3.60;;;;;;;;;;2069464;28;20026;-73
2023/12/15 05:17:44;;;;;;;3.60;3.30;;;;;;;;;;2070105;28;20141;-73
2023/12/15 05:19:02;;;;;;;3.95;3.55;;;;;;;;;;2078080;28;20041;-73
2023/12/15 05:20:21;;;;;;;3.97;3.65;;;;;;;;;;2075271;28;20025;-72
2023/12/15 05:21:40;;;;;;;4.95;3.63;;;;;;;;;;2076797;28;20029;-72
2023/12/15 05:22:59;;;;;;;3.90;3.60;;;;;;;;;;2081371;28;20390;-74
2023/12/15 05:24:18;;;;;;;3.90;3.53;;;;;;;;;;2074863;28;20022;-72
2023/12/15 05:25:37;;;;;;;4.95;4.15;;;;;;;;;;2071345;28;20586;-73
2023/12/15 05:26:56;;;;;;;3.67;3.38;;;;;;;;;;2078400;28;20030;-74
2023/12/15 05:28:15;;;;;;;3.45;3.03;;;;;;;;;;2073191;28;20042;-74
2023/12/15 05:29:37;;;;;;;3.67;3.38;;;;;;;;;;2070582;28;20108;-74
2023/12/15 05:30:56;;;;;;;4.25;3.85;;;;;;;;;;2068354;28;20101;-73
2023/12/15 05:32:16;;;;;;;3.70;3.40;;;;;;;;;;2067144;28;20446;-75
2023/12/15 05:33:35;;;;;;;3.80;3.50;;;;;;;;;;2071785;28;20515;-74
2023/12/15 05:34:54;;;;;;;5.13;3.13;;;;;;;;;;2068289;28;20038;-74
2023/12/15 05:36:18;;;;;;;3.72;3.25;;;;;;;;;;2070395;28;20018;-73
2023/12/15 05:37:37;;;;;;;4.13;3.70;;;;;;;;;;2073724;28;20041;-73
2023/12/15 05:38:55;;;;;;;3.75;3.33;;;;;;;;;;2077350;28;20014;-77
2023/12/15 05:40:15;;;;;;;3.72;3.35;;;;;;;;;;2080999;28;20030;-76
2023/12/15 05:41:40;;;;;;;4.40;3.30;;;;;;;;;;2081472;28;20042;-76
2023/12/15 05:42:59;;;;;;;3.45;3.10;;;;;;;;;;2080007;28;20034;-75
2023/12/15 05:44:18;;;;;;;3.72;3.42;;;;;;;;;;2074723;28;20025;-72
2023/12/15 05:45:37;;;;;;;4.13;3.47;;;;;;;;;;2071827;28;20033;-75
2023/12/15 05:46:57;;;;;;;3.90;3.60;;;;;;;;;;2072836;28;20029;-76
2023/12/15 05:48:16;;;;;;;3.88;3.47;;;;;;;;;;2072267;28;20034;-72
2023/12/15 05:49:38;;;;;;;3.35;3.05;;;;;;;;;;2076881;28;20014;-74
2023/12/15 05:50:58;;;;;;;3.95;3.65;;;;;;;;;;2081651;28;20026;-76
2023/12/15 05:52:17;;;;;;;3.75;3.45;;;;;;;;;;2089441;28;20034;-77
2023/12/15 05:53:36;;;;;;;4.13;3.35;;;;;;;;;;2077221;28;20030;-76
2023/12/15 05:54:55;;;;;;;3.72;3.42;;;;;;;;;;2073986;28;20034;-74
2023/12/15 05:56:14;;;;;;;4.22;3.50;;;;;;;;;;2075691;28;20026;-75
2023/12/15 05:57:33;;;;;;;4.18;3.78;;;;;;;;;;2075957;28;20021;-75
2023/12/15 05:58:52;;;;;;;4.47;4.07;;;;;;;;;;2077690;28;20049;-75
2023/12/15 06:00:11;;;;;;;4.43;4.03;;;;;;;;;;2074819;28;20026;-76
2023/12/15 06:01:31;;;;;;;4.00;3.70;;;;;;;;;;2071479;28;20030;-75
2023/12/15 06:02:49;;;;;;;4.30;3.90;;;;;;;;;;2071418;28;20034;-75
2023/12/15 06:04:08;;;;;;;4.50;4.10;;;;;;;;;;2072174;28;20029;-75
2023/12/15 06:05:28;;;;;;;4.15;3.83;;;;;;;;;;2071715;28;20026;-77
2023/12/15 06:06:47;;;;;;;4.22;3.75;;;;;;;;;;2071793;28;20100;-75
2023/12/15 06:08:06;;;;;;;4.40;4.00;;;;;;;;;;2072291;28;20022;-75
2023/12/15 06:09:25;;;;;;;4.65;4.10;;;;;;;;;;2075870;28;20064;-75
2023/12/15 06:10:44;;;;;;;4.57;4.18;;;;;;;;;;2073730;28;20026;-74
2023/12/15 06:12:04;;;;;;;4.93;4.07;;;;;;;;;;2072291;28;20029;-74
2023/12/15 06:13:22;;;;;;;4.47;4.07;;;;;;;;;;2070404;28;20034;-74
2023/12/15 06:14:42;;;;;;;4.88;4.30;;;;;;;;;;2071696;28;20034;-74
2023/12/15 06:16:01;;;;;;;8.30;4.65;;;;;;;;;;2071362;28;20109;-74
2023/12/15 06:17:20;;;;;;;5.57;4.60;;;;;;;;;;2066680;28;20026;-75
2023/12/15 06:18:38;;;;;;;4.80;4.30;;;;;;;;;;2067951;28;20049;-72
2023/12/15 06:19:57;;;;;;;6.13;4.22;;;;;;;;;;2067299;28;20018;-75
2023/12/15 06:21:20;;;;;;;5.57;5.03;;;;;;;;;;2072173;28;20030;-73
2023/12/15 06:22:40;;;;;;;6.60;4.88;;;;;;;;;;2071793;28;20212;-76
2023/12/15 06:23:58;;;;;;;6.82;4.72;;;;;;;;;;2069870;28;20105;-75
2023/12/15 06:25:17;;;;;;;6.93;4.80;;;;;;;;;;2070599;28;20022;-74
2023/12/15 06:26:36;;;;;;;11.20;7.03;;;;;;;;;;2067835;28;20058;-75
2023/12/15 06:27:55;;;;;;;4.90;4.40;;;;;;;;;;2071291;28;20379;-75
2023/12/15 06:29:14;;;;;;;5.65;4.50;;;;;;;;;;2078475;28;20021;-72
2023/12/15 06:30:33;;;;;;;5.90;4.82;;;;;;;;;;2078581;28;20029;-72
2023/12/15 06:31:52;;;;;;;5.00;4.47;;;;;;;;;;2077949;28;20033;-73
2023/12/15 06:33:11;;;;;;;5.88;4.45;;;;;;;;;;2079624;28;20378;-76
2023/12/15 06:34:30;;;;;;;7.03;4.72;;;;;;;;;;2080359;28;20072;-74
2023/12/15 06:35:49;;;;;;;5.95;5.13;;;;;;;;;;2079868;28;20057;-73
2023/12/15 06:37:08;;;;;;;6.95;4.88;;;;;;;;;;2079774;28;20037;-73
2023/12/15 06:38:28;;;;;;;5.45;4.65;;;;;;;;;;2078412;28;20029;-73
2023/12/15 06:39:47;;;;;;;8.05;5.22;;;;;;;;;;2078914;28;20030;-74
2023/12/15 06:41:06;;;;;;;5.55;5.00;;;;;;;;;;2077345;28;20042;-74
2023/12/15 06:42:25;;;;;;;5.32;4.63;;;;;;;;;;2071667;28;20033;-73
2023/12/15 06:43:45;;;;;;;6.82;4.93;;;;;;;;;;2080448;28;20116;-75
2023/12/15 06:45:07;;;;;;;4.70;4.28;;;;;;;;;;2075382;28;20539;-74
2023/12/15 06:46:27;;;;;;;5.22;4.80;;;;;;;;;;2071070;28;20065;-73
2023/12/15 06:47:45;;;;;;;4.43;4.03;;;;;;;;;;2076265;28;20061;-74
2023/12/15 06:49:05;;;;;;;4.57;4.18;;;;;;;;;;2079865;28;21761;-74
2023/12/15 06:50:24;;;;;;;5.13;4.57;;;;;;;;;;2080461;28;20041;-72
2023/12/15 06:51:43;;;;;;;5.00;4.45;;;;;;;;;;2076039;28;20051;-73
2023/12/15 06:53:02;;;;;;;4.70;4.20;;;;;;;;;;2079037;28;20490;-73
2023/12/15 06:54:21;;;;;;;5.40;4.90;;;;;;;;;;2080086;28;20033;-74
2023/12/15 06:55:40;;;;;;;5.30;4.80;;;;;;;;;;2078971;28;20033;-74
2023/12/15 06:56:59;;;;;;;5.82;4.68;;;;;;;;;;2073733;28;20551;-74
2023/12/15 06:58:18;;;;;;;5.65;4.88;;;;;;;;;;2077426;28;20041;-74
2023/12/15 06:59:40;;;;;;;5.47;4.97;;;;;;;;;;2078968;28;21107;-74
2023/12/15 07:00:58;;;;;;;4.88;4.35;;;;;;;;;;2068776;28;20038;-73
2023/12/15 07:02:17;;;;;;;6.05;4.82;;;;;;;;;;2070905;28;20410;-73
2023/12/15 07:03:36;;;;;;;6.20;4.90;;;;;;;;;;2079923;28;20115;-73
2023/12/15 07:04:57;;;;;;;4.82;4.32;;;;;;;;;;2076154;28;20057;-73
2023/12/15 07:06:18;;;;;;;13.80;9.10;;;;;;;;;;2074783;28;20038;-74
2023/12/15 07:07:37;;;;;;;5.30;4.80;;;;;;;;;;2072563;28;20034;-73
2023/12/15 07:08:56;;;;;;;6.55;5.38;;;;;;;;;;2073306;28;20523;-73
2023/12/15 07:10:16;;;;;;;6.25;5.18;;;;;;;;;;2077876;28;20033;-73
2023/12/15 07:11:35;;;;;;;6.00;4.93;;;;;;;;;;2079422;28;20026;-73
2023/12/15 07:12:54;;;;;;;4.95;4.55;;;;;;;;;;2073375;28;20037;-74
2023/12/15 07:14:13;;;;;;;6.70;5.05;;;;;;;;;;2076498;28;20025;-73
2023/12/15 07:15:33;;;;;;;5.55;4.88;;;;;;;;;;2072355;28;20132;-72
2023/12/15 07:16:52;;;;;;;5.13;4.47;;;;;;;;;;2075028;28;20528;-74
2023/12/15 07:18:10;;;;;;;5.15;4.65;;;;;;;;;;2082168;28;20042;-73
2023/12/15 07:19:30;;;;;;;6.43;4.88;;;;;;;;;;2076164;28;20471;-73
2023/12/15 07:20:49;;;;;;;5.57;4.88;;;;;;;;;;2078069;28;20402;-73
2023/12/15 07:22:08;;;;;;;5.45;4.95;;;;;;;;;;2073452;28;20041;-73
2023/12/15 07:23:27;;;;;;;6.18;4.88;;;;;;;;;;2076689;28;20030;-75
2023/12/15 07:24:45;;;;;;;5.97;5.07;;;;;;;;;;2072717;28;20030;-74
2023/12/15 07:26:05;;;;;;;5.35;4.85;;;;;;;;;;2078839;28;20030;-73
2023/12/15 07:27:24;;;;;;;5.22;4.68;;;;;;;;;;2073826;28;20030;-73
2023/12/15 07:28:42;;;;;;;4.85;4.35;;;;;;;;;;2077395;28;20042;-73
2023/12/15 07:30:01;;;;;;;5.07;4.55;;;;;;;;;;2080922;28;20112;-72
2023/12/15 07:31:21;;;;;;;5.60;5.10;;;;;;;;;;2081071;28;20038;-73
2023/12/15 07:32:40;;;;;;;5.05;4.55;;;;;;;;;;2079663;28;20029;-74
2023/12/15 07:33:59;;;;;;;6.28;4.95;;;;;;;;;;2075649;28;20026;-73
2023/12/15 07:35:18;;;;;;;5.80;5.20;;;;;;;;;;2073866;28;20490;-73
2023/12/15 07:36:37;;;;;;;7.07;5.00;;;;;;;;;;2079686;28;20379;-73
2023/12/15 07:37:56;;;;;;;6.00;5.05;;;;;;;;;;2080567;28;20112;-74
2023/12/15 07:39:21;;;;;;;6.03;5.32;;;;;;;;;;2070655;28;20787;-73
2023/12/15 07:40:40;;;;;;;6.68;5.35;;;;;;;;;;2081015;28;20030;-74
2023/12/15 07:41:59;;;;;;;6.40;5.15;;;;;;;;;;2080975;28;20021;-73
2023/12/15 07:43:18;;;;;;;7.28;5.28;;;;;;;;;;2074017;28;20034;-73
2023/12/15 07:44:37;;;;;;;5.60;5.00;;;;;;;;;;2079271;28;20025;-73
2023/12/15 07:45:57;;;;;;;6.28;5.15;;;;;;;;;;2075168;28;20491;-74
2023/12/15 07:47:16;;;;;;;5.97;4.93;;;;;;;;;;2072439;28;20030;-73
2023/12/15 07:48:35;;;;;;;6.55;5.40;;;;;;;;;;2076865;28;20037;-73
2023/12/15 07:49:54;;;;;;;7.03;5.03;;;;;;;;;;2080104;28;20030;-76
2023/12/15 07:51:18;;;;;;;6.38;5.35;;;;;;;;;;2081026;28;20096;-73
2023/12/15 07:52:37;;;;;;;5.60;5.00;;;;;;;;;;2078105;28;20030;-74
2023/12/15 07:53:56;;;;;;;6.28;5.43;;;;;;;;;;2079809;28;20029;-73
2023/12/15 07:55:15;;;;;;;8.95;5.75;;;;;;;;;;2080020;28;20734;-73